sensor_id;sensor_type;location;lat;lon;timestamp;P1;durP1;ratioP1;P2;durP2;ratioP2
15814;SDS011;8008;50.024;8.172;2022-10-16T03:02:40;2.25;;;2.05;;
15814;SDS011;8008;50.024;8.172;2022-10-16T03:05:09;1.98;;;1.75;;
15814;SDS011;8008;50.024;8.172;2022-10-16T03:07:37;4.05;;;2.10;;
15814;SDS011;8008;50.024;8.172;2022-10-16T03:10:05;3.67;;;2.50;;
15814;SDS011;8008;50.024;8.172;2022-10-16T03:12:34;3.08;;;2.25;;
15814;SDS011;8008;50.024;8.172;2022-10-16T03:15:02;5.47;;;2.20;;
15814;SDS011;8008;50.024;8.172;2022-10-16T03:17:31;3.15;;;2.15;;
15814;SDS011;8008;50.024;8.172;2022-10-16T03:20:01;2.72;;;1.90;;
15814;SDS011;8008;50.024;8.172;2022-10-16T03:22:29;2.53;;;1.90;;
15814;SDS011;8008;50.024;8.172;2022-10-16T03:24:56;3.03;;;1.80;;
15814;SDS011;8008;50.024;8.172;2022-10-16T03:27:24;3.33;;;2.10;;
15814;SDS011;8008;50.024;8.172;2022-10-16T03:29:53;2.85;;;2.30;;
15814;SDS011;8008;50.024;8.172;2022-10-16T03:32:21;4.57;;;2.40;;
15814;SDS011;8008;50.024;8.172;2022-10-16T03:34:51;4.70;;;2.35;;
15814;SDS011;8008;50.024;8.172;2022-10-16T03:37:21;2.40;;;2.20;;
15814;SDS011;8008;50.024;8.172;2022-10-16T03:39:50;2.72;;;2.50;;
15814;SDS011;8008;50.024;8.172;2022-10-16T03:42:18;4.85;;;2.58;;
15814;SDS011;8008;50.024;8.172;2022-10-16T03:44:46;2.28;;;2.13;;
15814;SDS011;8008;50.024;8.172;2022-10-16T03:47:14;2.55;;;2.20;;
15814;SDS011;8008;50.024;8.172;2022-10-16T03:49:42;5.30;;;2.20;;
15814;SDS011;8008;50.024;8.172;2022-10-16T03:52:10;2.83;;;2.05;;
15814;SDS011;8008;50.024;8.172;2022-10-16T03:54:39;2.38;;;2.17;;
15814;SDS011;8008;50.024;8.172;2022-10-16T03:57:07;2.00;;;1.90;;
15814;SDS011;8008;50.024;8.172;2022-10-16T03:59:35;2.47;;;2.28;;
15814;SDS011;8008;50.024;8.172;2022-10-16T04:02:02;3.58;;;2.30;;
15814;SDS011;8008;50.024;8.172;2022-10-16T04:04:30;2.20;;;2.05;;
15814;SDS011;8008;50.024;8.172;2022-10-16T04:06:58;2.33;;;2.13;;
15814;SDS011;8008;50.024;8.172;2022-10-16T04:09:26;3.92;;;2.50;;
15814;SDS011;8008;50.024;8.172;2022-10-16T04:11:55;2.60;;;1.98;;
15814;SDS011;8008;50.024;8.172;2022-10-16T04:14:23;3.67;;;2.22;;
15814;SDS011;8008;50.024;8.172;2022-10-16T04:16:51;3.75;;;2.10;;
15814;SDS011;8008;50.024;8.172;2022-10-16T04:19:19;2.60;;;2.40;;
15814;SDS011;8008;50.024;8.172;2022-10-16T04:21:47;2.50;;;2.30;;
15814;SDS011;8008;50.024;8.172;2022-10-16T04:24:15;2.42;;;2.22;;
15814;SDS011;8008;50.024;8.172;2022-10-16T04:26:43;3.15;;;2.13;;
15814;SDS011;8008;50.024;8.172;2022-10-16T04:29:12;3.53;;;2.38;;
15814;SDS011;8008;50.024;8.172;2022-10-16T04:31:40;4.07;;;2.70;;
15814;SDS011;8008;50.024;8.172;2022-10-16T04:34:08;2.60;;;2.40;;
15814;SDS011;8008;50.024;8.172;2022-10-16T04:36:36;3.92;;;2.97;;
15814;SDS011;8008;50.024;8.172;2022-10-16T04:39:04;3.13;;;2.55;;
15814;SDS011;8008;50.024;8.172;2022-10-16T04:41:32;4.22;;;2.80;;
15814;SDS011;8008;50.024;8.172;2022-10-16T04:44:00;3.13;;;2.83;;
15814;SDS011;8008;50.024;8.172;2022-10-16T04:46:29;6.53;;;3.03;;
15814;SDS011;8008;50.024;8.172;2022-10-16T04:48:57;3.25;;;2.70;;
15814;SDS011;8008;50.024;8.172;2022-10-16T04:51:25;3.22;;;2.90;;
15814;SDS011;8008;50.024;8.172;2022-10-16T04:53:54;4.25;;;2.90;;
15814;SDS011;8008;50.024;8.172;2022-10-16T04:56:22;3.45;;;2.70;;
15814;SDS011;8008;50.024;8.172;2022-10-16T04:58:50;3.63;;;2.92;;
15814;SDS011;8008;50.024;8.172;2022-10-16T05:01:18;4.45;;;2.60;;
15814;SDS011;8008;50.024;8.172;2022-10-16T05:03:47;3.42;;;2.70;;
15814;SDS011;8008;50.024;8.172;2022-10-16T05:06:15;5.03;;;3.38;;
15814;SDS011;8008;50.024;8.172;2022-10-16T05:08:43;3.88;;;3.25;;
15814;SDS011;8008;50.024;8.172;2022-10-16T05:11:11;4.68;;;3.10;;
15814;SDS011;8008;50.024;8.172;2022-10-16T05:13:39;3.50;;;2.75;;
15814;SDS011;8008;50.024;8.172;2022-10-16T05:16:07;4.57;;;3.42;;
15814;SDS011;8008;50.024;8.172;2022-10-16T05:18:35;5.20;;;3.28;;
15814;SDS011;8008;50.024;8.172;2022-10-16T05:21:04;3.60;;;3.25;;
15814;SDS011;8008;50.024;8.172;2022-10-16T05:23:33;4.40;;;3.58;;
15814;SDS011;8008;50.024;8.172;2022-10-16T05:26:01;4.78;;;3.75;;
15814;SDS011;8008;50.024;8.172;2022-10-16T05:28:29;4.82;;;3.80;;
15814;SDS011;8008;50.024;8.172;2022-10-16T05:30:57;5.35;;;3.50;;
15814;SDS011;8008;50.024;8.172;2022-10-16T05:33:25;5.45;;;3.58;;
15814;SDS011;8008;50.024;8.172;2022-10-16T05:35:53;4.90;;;3.50;;
15814;SDS011;8008;50.024;8.172;2022-10-16T05:38:23;5.03;;;3.83;;
15814;SDS011;8008;50.024;8.172;2022-10-16T05:40:51;4.57;;;3.80;;
15814;SDS011;8008;50.024;8.172;2022-10-16T05:43:19;6.15;;;4.15;;
15814;SDS011;8008;50.024;8.172;2022-10-16T05:45:53;5.15;;;3.55;;
15814;SDS011;8008;50.024;8.172;2022-10-16T05:48:22;6.70;;;3.90;;
15814;SDS011;8008;50.024;8.172;2022-10-16T05:50:56;6.70;;;4.03;;
15814;SDS011;8008;50.024;8.172;2022-10-16T05:53:26;7.13;;;4.20;;
15814;SDS011;8008;50.024;8.172;2022-10-16T05:55:55;6.90;;;4.07;;
15814;SDS011;8008;50.024;8.172;2022-10-16T05:58:23;7.65;;;5.38;;
15814;SDS011;8008;50.024;8.172;2022-10-16T06:00:53;5.53;;;4.28;;
15814;SDS011;8008;50.024;8.172;2022-10-16T06:03:21;3.85;;;3.45;;
15814;SDS011;8008;50.024;8.172;2022-10-16T06:05:49;6.53;;;3.28;;
15814;SDS011;8008;50.024;8.172;2022-10-16T06:08:17;5.95;;;3.28;;
15814;SDS011;8008;50.024;8.172;2022-10-16T06:10:47;6.82;;;3.40;;
15814;SDS011;8008;50.024;8.172;2022-10-16T06:13:15;3.72;;;3.30;;
15814;SDS011;8008;50.024;8.172;2022-10-16T06:15:44;5.90;;;5.10;;
15814;SDS011;8008;50.024;8.172;2022-10-16T06:18:12;5.85;;;4.43;;
15814;SDS011;8008;50.024;8.172;2022-10-16T06:20:40;6.05;;;4.57;;
15814;SDS011;8008;50.024;8.172;2022-10-16T06:23:08;3.90;;;3.60;;
15814;SDS011;8008;50.024;8.172;2022-10-16T06:25:36;5.50;;;3.25;;
15814;SDS011;8008;50.024;8.172;2022-10-16T06:28:05;3.22;;;2.92;;
15814;SDS011;8008;50.024;8.172;2022-10-16T06:30:33;3.45;;;3.10;;
15814;SDS011;8008;50.024;8.172;2022-10-16T06:33:01;3.50;;;3.20;;
15814;SDS011;8008;50.024;8.172;2022-10-16T06:35:29;3.92;;;3.10;;
15814;SDS011;8008;50.024;8.172;2022-10-16T06:37:58;5.00;;;3.13;;
15814;SDS011;8008;50.024;8.172;2022-10-16T06:40:26;4.63;;;3.35;;
15814;SDS011;8008;50.024;8.172;2022-10-16T06:42:54;3.60;;;3.30;;
15814;SDS011;8008;50.024;8.172;2022-10-16T06:45:23;4.32;;;3.17;;
15814;SDS011;8008;50.024;8.172;2022-10-16T06:47:51;4.95;;;3.08;;
15814;SDS011;8008;50.024;8.172;2022-10-16T06:50:19;6.32;;;3.47;;
15814;SDS011;8008;50.024;8.172;2022-10-16T06:52:47;4.65;;;4.18;;
15814;SDS011;8008;50.024;8.172;2022-10-16T06:55:15;5.57;;;3.75;;
15814;SDS011;8008;50.024;8.172;2022-10-16T06:57:44;4.80;;;4.30;;
15814;SDS011;8008;50.024;8.172;2022-10-16T07:00:14;5.50;;;3.60;;
15814;SDS011;8008;50.024;8.172;2022-10-16T07:02:44;3.88;;;3.40;;
15814;SDS011;8008;50.024;8.172;2022-10-16T07:05:12;5.15;;;3.60;;
15814;SDS011;8008;50.024;8.172;2022-10-16T07:07:40;5.50;;;3.42;;
15814;SDS011;8008;50.024;8.172;2022-10-16T07:10:08;3.83;;;3.20;;
15814;SDS011;8008;50.024;8.172;2022-10-16T07:12:36;4.25;;;3.85;;
15814;SDS011;8008;50.024;8.172;2022-10-16T07:15:04;4.78;;;4.03;;
15814;SDS011;8008;50.024;8.172;2022-10-16T07:17:33;6.45;;;3.60;;
15814;SDS011;8008;50.024;8.172;2022-10-16T07:20:02;4.68;;;3.70;;
15814;SDS011;8008;50.024;8.172;2022-10-16T07:22:31;5.03;;;3.70;;
15814;SDS011;8008;50.024;8.172;2022-10-16T07:24:59;4.43;;;3.90;;
15814;SDS011;8008;50.024;8.172;2022-10-16T07:27:27;5.40;;;4.60;;
15814;SDS011;8008;50.024;8.172;2022-10-16T07:29:55;6.80;;;4.20;;
15814;SDS011;8008;50.024;8.172;2022-10-16T07:32:23;4.55;;;4.05;;
15814;SDS011;8008;50.024;8.172;2022-10-16T07:34:52;6.60;;;3.80;;
15814;SDS011;8008;50.024;8.172;2022-10-16T07:37:23;4.97;;;3.72;;
15814;SDS011;8008;50.024;8.172;2022-10-16T07:39:51;4.15;;;3.45;;
15814;SDS011;8008;50.024;8.172;2022-10-16T07:42:19;4.65;;;3.95;;
15814;SDS011;8008;50.024;8.172;2022-10-16T07:44:47;3.80;;;3.40;;
15814;SDS011;8008;50.024;8.172;2022-10-16T07:47:15;3.72;;;3.40;;
15814;SDS011;8008;50.024;8.172;2022-10-16T07:49:43;4.95;;;3.60;;
15814;SDS011;8008;50.024;8.172;2022-10-16T07:52:10;3.97;;;3.50;;
15814;SDS011;8008;50.024;8.172;2022-10-16T07:54:40;5.20;;;4.05;;
15814;SDS011;8008;50.024;8.172;2022-10-16T07:57:08;4.43;;;3.38;;
15814;SDS011;8008;50.024;8.172;2022-10-16T07:59:36;5.18;;;4.28;;
15814;SDS011;8008;50.024;8.172;2022-10-16T08:02:04;5.10;;;3.60;;
15814;SDS011;8008;50.024;8.172;2022-10-16T08:04:32;4.00;;;3.58;;
15814;SDS011;8008;50.024;8.172;2022-10-16T08:07:00;4.00;;;3.33;;
15814;SDS011;8008;50.024;8.172;2022-10-16T08:09:28;4.30;;;3.47;;
15814;SDS011;8008;50.024;8.172;2022-10-16T08:11:57;4.63;;;3.13;;
15814;SDS011;8008;50.024;8.172;2022-10-16T08:14:27;4.22;;;3.47;;
15814;SDS011;8008;50.024;8.172;2022-10-16T08:16:55;5.15;;;3.25;;
15814;SDS011;8008;50.024;8.172;2022-10-16T08:19:23;4.80;;;3.58;;
15814;SDS011;8008;50.024;8.172;2022-10-16T08:21:51;4.20;;;3.33;;
15814;SDS011;8008;50.024;8.172;2022-10-16T08:24:19;3.25;;;2.95;;
15814;SDS011;8008;50.024;8.172;2022-10-16T08:26:47;3.72;;;3.10;;
15814;SDS011;8008;50.024;8.172;2022-10-16T08:29:16;4.20;;;3.15;;
15814;SDS011;8008;50.024;8.172;2022-10-16T08:31:44;3.20;;;2.90;;
15814;SDS011;8008;50.024;8.172;2022-10-16T08:34:12;3.20;;;2.90;;
15814;SDS011;8008;50.024;8.172;2022-10-16T08:36:41;3.47;;;2.70;;
15814;SDS011;8008;50.024;8.172;2022-10-16T08:39:09;3.17;;;2.90;;
15814;SDS011;8008;50.024;8.172;2022-10-16T08:41:47;4.35;;;2.85;;
15814;SDS011;8008;50.024;8.172;2022-10-16T08:44:37;4.05;;;3.20;;
15814;SDS011;8008;50.024;8.172;2022-10-16T08:47:20;3.83;;;3.42;;
15814;SDS011;8008;50.024;8.172;2022-10-16T08:49:55;3.58;;;3.28;;
15814;SDS011;8008;50.024;8.172;2022-10-16T08:52:25;3.42;;;3.13;;
15814;SDS011;8008;50.024;8.172;2022-10-16T08:54:58;4.55;;;3.55;;
15814;SDS011;8008;50.024;8.172;2022-10-16T08:57:26;5.72;;;4.50;;
15814;SDS011;8008;50.024;8.172;2022-10-16T08:59:57;6.10;;;3.70;;
15814;SDS011;8008;50.024;8.172;2022-10-16T09:02:29;6.47;;;3.72;;
15814;SDS011;8008;50.024;8.172;2022-10-16T09:08:09;3.00;;;2.80;;
15814;SDS011;8008;50.024;8.172;2022-10-16T09:10:44;3.50;;;3.20;;
15814;SDS011;8008;50.024;8.172;2022-10-16T09:13:19;3.40;;;2.92;;
15814;SDS011;8008;50.024;8.172;2022-10-16T09:15:55;3.20;;;2.90;;
15814;SDS011;8008;50.024;8.172;2022-10-16T09:18:34;3.63;;;2.92;;
15814;SDS011;8008;50.024;8.172;2022-10-16T09:21:09;2.60;;;2.40;;
15814;SDS011;8008;50.024;8.172;2022-10-16T09:23:43;2.08;;;1.95;;
15814;SDS011;8008;50.024;8.172;2022-10-16T09:26:11;2.38;;;2.17;;
15814;SDS011;8008;50.024;8.172;2022-10-16T09:28:41;3.20;;;2.05;;
15814;SDS011;8008;50.024;8.172;2022-10-16T09:31:13;2.08;;;1.98;;
15814;SDS011;8008;50.024;8.172;2022-10-16T09:33:45;2.50;;;2.30;;
15814;SDS011;8008;50.024;8.172;2022-10-16T09:36:16;2.67;;;2.30;;
15814;SDS011;8008;50.024;8.172;2022-10-16T09:38:45;3.03;;;2.10;;
15814;SDS011;8008;50.024;8.172;2022-10-16T09:41:14;2.42;;;1.98;;
15814;SDS011;8008;50.024;8.172;2022-10-16T09:43:52;2.30;;;2.10;;
15814;SDS011;8008;50.024;8.172;2022-10-16T09:46:29;2.20;;;2.00;;
15814;SDS011;8008;50.024;8.172;2022-10-16T09:48:59;2.25;;;2.08;;
15814;SDS011;8008;50.024;8.172;2022-10-16T09:51:29;3.17;;;2.08;;
15814;SDS011;8008;50.024;8.172;2022-10-16T09:53:59;3.85;;;2.10;;
15814;SDS011;8008;50.024;8.172;2022-10-16T09:56:28;2.28;;;2.00;;
15814;SDS011;8008;50.024;8.172;2022-10-16T09:59:13;2.63;;;1.75;;
15814;SDS011;8008;50.024;8.172;2022-10-16T10:01:44;2.13;;;1.92;;
15814;SDS011;8008;50.024;8.172;2022-10-16T10:04:14;2.08;;;1.88;;
15814;SDS011;8008;50.024;8.172;2022-10-16T10:06:43;1.70;;;1.60;;
15814;SDS011;8008;50.024;8.172;2022-10-16T10:09:15;2.58;;;1.60;;
15814;SDS011;8008;50.024;8.172;2022-10-16T10:11:50;1.70;;;1.60;;
15814;SDS011;8008;50.024;8.172;2022-10-16T10:14:22;2.95;;;1.70;;
15814;SDS011;8008;50.024;8.172;2022-10-16T10:19:46;2.08;;;1.48;;
15814;SDS011;8008;50.024;8.172;2022-10-16T10:22:24;2.92;;;1.42;;
15814;SDS011;8008;50.024;8.172;2022-10-16T10:24:55;1.48;;;1.38;;
15814;SDS011;8008;50.024;8.172;2022-10-16T10:27:30;4.03;;;1.30;;
15814;SDS011;8008;50.024;8.172;2022-10-16T10:30:06;3.65;;;1.63;;
15814;SDS011;8008;50.024;8.172;2022-10-16T10:32:49;1.50;;;1.40;;
15814;SDS011;8008;50.024;8.172;2022-10-16T10:35:29;1.35;;;1.25;;
15814;SDS011;8008;50.024;8.172;2022-10-16T10:38:13;1.45;;;1.35;;
15814;SDS011;8008;50.024;8.172;2022-10-16T10:40:51;1.88;;;1.63;;
15814;SDS011;8008;50.024;8.172;2022-10-16T10:43:30;2.50;;;1.95;;
15814;SDS011;8008;50.024;8.172;2022-10-16T10:46:16;3.00;;;1.80;;
15814;SDS011;8008;50.024;8.172;2022-10-16T10:48:54;2.25;;;1.90;;
15814;SDS011;8008;50.024;8.172;2022-10-16T10:51:36;2.38;;;2.17;;
15814;SDS011;8008;50.024;8.172;2022-10-16T10:54:13;2.17;;;1.95;;
15814;SDS011;8008;50.024;8.172;2022-10-16T10:56:45;2.28;;;2.00;;
15814;SDS011;8008;50.024;8.172;2022-10-16T10:59:23;2.33;;;2.00;;
15814;SDS011;8008;50.024;8.172;2022-10-16T11:02:13;2.08;;;1.83;;
15814;SDS011;8008;50.024;8.172;2022-10-16T11:04:58;1.80;;;1.70;;
15814;SDS011;8008;50.024;8.172;2022-10-16T11:07:48;2.25;;;1.80;;
15814;SDS011;8008;50.024;8.172;2022-10-16T11:10:20;1.85;;;1.60;;
15814;SDS011;8008;50.024;8.172;2022-10-16T11:12:52;2.67;;;1.77;;
15814;SDS011;8008;50.024;8.172;2022-10-16T11:15:27;1.95;;;1.63;;
15814;SDS011;8008;50.024;8.172;2022-10-16T11:18:00;4.28;;;1.63;;
15814;SDS011;8008;50.024;8.172;2022-10-16T11:20:33;2.97;;;1.52;;
15814;SDS011;8008;50.024;8.172;2022-10-16T11:23:07;2.45;;;1.80;;
15814;SDS011;8008;50.024;8.172;2022-10-16T11:25:41;2.38;;;1.85;;
15814;SDS011;8008;50.024;8.172;2022-10-16T11:28:11;3.22;;;1.77;;
15814;SDS011;8008;50.024;8.172;2022-10-16T11:30:43;2.47;;;1.80;;
15814;SDS011;8008;50.024;8.172;2022-10-16T11:33:24;2.33;;;1.88;;
15814;SDS011;8008;50.024;8.172;2022-10-16T11:36:00;2.00;;;1.88;;
15814;SDS011;8008;50.024;8.172;2022-10-16T11:38:34;1.98;;;1.77;;
15814;SDS011;8008;50.024;8.172;2022-10-16T11:41:10;2.92;;;2.00;;
15814;SDS011;8008;50.024;8.172;2022-10-16T11:43:46;2.35;;;1.60;;
15814;SDS011;8008;50.024;8.172;2022-10-16T11:46:20;2.85;;;1.75;;
15814;SDS011;8008;50.024;8.172;2022-10-16T11:48:52;2.15;;;1.70;;
15814;SDS011;8008;50.024;8.172;2022-10-16T11:51:29;3.45;;;1.90;;
15814;SDS011;8008;50.024;8.172;2022-10-16T11:54:04;1.63;;;1.52;;
15814;SDS011;8008;50.024;8.172;2022-10-16T11:56:42;1.70;;;1.60;;
15814;SDS011;8008;50.024;8.172;2022-10-16T11:59:13;1.70;;;1.60;;
15814;SDS011;8008;50.024;8.172;2022-10-16T12:01:48;1.67;;;1.40;;
15814;SDS011;8008;50.024;8.172;2022-10-16T12:04:23;1.65;;;1.52;;
15814;SDS011;8008;50.024;8.172;2022-10-16T12:07:01;1.85;;;1.75;;
15814;SDS011;8008;50.024;8.172;2022-10-16T12:09:34;2.53;;;1.70;;
15814;SDS011;8008;50.024;8.172;2022-10-16T12:12:04;2.60;;;1.70;;
15814;SDS011;8008;50.024;8.172;2022-10-16T12:14:35;1.50;;;1.40;;
15814;SDS011;8008;50.024;8.172;2022-10-16T12:17:25;1.63;;;1.52;;
15814;SDS011;8008;50.024;8.172;2022-10-16T12:19:59;1.70;;;1.60;;
15814;SDS011;8008;50.024;8.172;2022-10-16T12:22:29;1.73;;;1.63;;
15814;SDS011;8008;50.024;8.172;2022-10-16T12:25:04;3.97;;;3.63;;
15814;SDS011;8008;50.024;8.172;2022-10-16T12:27:52;3.13;;;2.83;;
15814;SDS011;8008;50.024;8.172;2022-10-16T12:30:23;3.95;;;2.78;;
15814;SDS011;8008;50.024;8.172;2022-10-16T12:32:58;2.60;;;2.30;;
15814;SDS011;8008;50.024;8.172;2022-10-16T12:35:30;2.88;;;1.90;;
15814;SDS011;8008;50.024;8.172;2022-10-16T12:38:04;2.35;;;1.90;;
15814;SDS011;8008;50.024;8.172;2022-10-16T12:40:35;4.55;;;2.75;;
15814;SDS011;8008;50.024;8.172;2022-10-16T12:43:12;2.50;;;2.30;;
15814;SDS011;8008;50.024;8.172;2022-10-16T12:45:59;2.55;;;1.92;;
15814;SDS011;8008;50.024;8.172;2022-10-16T12:48:28;2.58;;;2.00;;
15814;SDS011;8008;50.024;8.172;2022-10-16T12:51:22;2.25;;;2.00;;
15814;SDS011;8008;50.024;8.172;2022-10-16T12:53:58;2.20;;;2.10;;
15814;SDS011;8008;50.024;8.172;2022-10-16T12:56:28;2.30;;;1.90;;
15814;SDS011;8008;50.024;8.172;2022-10-16T12:59:14;2.22;;;1.52;;
15814;SDS011;8008;50.024;8.172;2022-10-16T13:01:58;2.60;;;1.90;;
15814;SDS011;8008;50.024;8.172;2022-10-16T13:04:47;3.40;;;1.90;;
15814;SDS011;8008;50.024;8.172;2022-10-16T13:07:34;2.65;;;2.00;;
15814;SDS011;8008;50.024;8.172;2022-10-16T13:10:14;2.30;;;2.10;;
15814;SDS011;8008;50.024;8.172;2022-10-16T13:12:55;4.28;;;2.15;;
15814;SDS011;8008;50.024;8.172;2022-10-16T13:15:41;2.20;;;2.00;;
15814;SDS011;8008;50.024;8.172;2022-10-16T13:18:21;2.03;;;1.90;;
15814;SDS011;8008;50.024;8.172;2022-10-16T13:21:00;2.40;;;2.00;;
15814;SDS011;8008;50.024;8.172;2022-10-16T13:23:41;2.97;;;2.20;;
15814;SDS011;8008;50.024;8.172;2022-10-16T13:26:17;2.10;;;1.90;;
15814;SDS011;8008;50.024;8.172;2022-10-16T13:28:53;2.28;;;1.90;;
15814;SDS011;8008;50.024;8.172;2022-10-16T13:31:25;2.42;;;1.85;;
15814;SDS011;8008;50.024;8.172;2022-10-16T13:33:55;1.90;;;1.70;;
15814;SDS011;8008;50.024;8.172;2022-10-16T13:36:25;2.00;;;1.90;;
15814;SDS011;8008;50.024;8.172;2022-10-16T13:39:06;2.38;;;2.17;;
15814;SDS011;8008;50.024;8.172;2022-10-16T13:41:39;2.40;;;1.98;;
15814;SDS011;8008;50.024;8.172;2022-10-16T13:44:11;3.28;;;2.03;;
15814;SDS011;8008;50.024;8.172;2022-10-16T13:46:42;1.92;;;1.83;;
15814;SDS011;8008;50.024;8.172;2022-10-16T13:49:12;2.20;;;2.00;;
15814;SDS011;8008;50.024;8.172;2022-10-16T13:51:47;2.58;;;2.10;;
15814;SDS011;8008;50.024;8.172;2022-10-16T13:54:23;2.50;;;2.10;;
15814;SDS011;8008;50.024;8.172;2022-10-16T13:56:51;2.65;;;2.17;;
15814;SDS011;8008;50.024;8.172;2022-10-16T13:59:34;2.63;;;2.03;;
15814;SDS011;8008;50.024;8.172;2022-10-16T14:02:05;2.22;;;2.00;;
15814;SDS011;8008;50.024;8.172;2022-10-16T14:04:44;3.15;;;1.90;;
15814;SDS011;8008;50.024;8.172;2022-10-16T14:07:13;2.78;;;2.15;;
15814;SDS011;8008;50.024;8.172;2022-10-16T14:09:49;4.22;;;2.30;;
15814;SDS011;8008;50.024;8.172;2022-10-16T14:12:18;2.10;;;1.92;;
15814;SDS011;8008;50.024;8.172;2022-10-16T14:14:52;2.65;;;2.08;;
15814;SDS011;8008;50.024;8.172;2022-10-16T14:17:23;2.95;;;2.00;;
15814;SDS011;8008;50.024;8.172;2022-10-16T14:19:53;2.20;;;2.00;;
15814;SDS011;8008;50.024;8.172;2022-10-16T14:22:30;3.05;;;2.05;;
15814;SDS011;8008;50.024;8.172;2022-10-16T14:25:01;2.65;;;2.05;;
15814;SDS011;8008;50.024;8.172;2022-10-16T14:27:30;4.80;;;2.25;;
15814;SDS011;8008;50.024;8.172;2022-10-16T14:30:12;2.70;;;2.00;;
15814;SDS011;8008;50.024;8.172;2022-10-16T14:32:52;2.10;;;1.92;;
15814;SDS011;8008;50.024;8.172;2022-10-16T14:35:22;2.10;;;1.95;;
15814;SDS011;8008;50.024;8.172;2022-10-16T14:37:52;2.42;;;2.15;;
15814;SDS011;8008;50.024;8.172;2022-10-16T14:40:24;2.30;;;2.10;;
15814;SDS011;8008;50.024;8.172;2022-10-16T14:42:53;2.38;;;2.17;;
15814;SDS011;8008;50.024;8.172;2022-10-16T14:45:22;2.60;;;2.40;;
15814;SDS011;8008;50.024;8.172;2022-10-16T14:47:53;2.85;;;2.50;;
15814;SDS011;8008;50.024;8.172;2022-10-16T14:50:23;2.63;;;2.42;;
15814;SDS011;8008;50.024;8.172;2022-10-16T14:52:52;3.15;;;2.20;;
15814;SDS011;8008;50.024;8.172;2022-10-16T14:55:19;2.70;;;2.50;;
15814;SDS011;8008;50.024;8.172;2022-10-16T14:57:54;2.80;;;2.60;;
15814;SDS011;8008;50.024;8.172;2022-10-16T15:00:26;2.80;;;2.60;;
15814;SDS011;8008;50.024;8.172;2022-10-16T15:02:54;3.90;;;2.90;;
15814;SDS011;8008;50.024;8.172;2022-10-16T15:05:23;2.88;;;2.58;;
15814;SDS011;8008;50.024;8.172;2022-10-16T15:07:52;3.67;;;3.00;;
15814;SDS011;8008;50.024;8.172;2022-10-16T15:10:22;3.10;;;2.80;;
15814;SDS011;8008;50.024;8.172;2022-10-16T15:12:51;3.85;;;2.83;;
15814;SDS011;8008;50.024;8.172;2022-10-16T15:15:29;4.75;;;3.05;;
15814;SDS011;8008;50.024;8.172;2022-10-16T15:18:01;3.55;;;3.20;;
15814;SDS011;8008;50.024;8.172;2022-10-16T15:20:30;3.75;;;3.03;;
15814;SDS011;8008;50.024;8.172;2022-10-16T15:23:01;4.82;;;3.33;;
15814;SDS011;8008;50.024;8.172;2022-10-16T15:25:31;4.20;;;3.50;;
15814;SDS011;8008;50.024;8.172;2022-10-16T15:28:02;5.10;;;3.30;;
15814;SDS011;8008;50.024;8.172;2022-10-16T15:30:33;3.47;;;3.10;;
15814;SDS011;8008;50.024;8.172;2022-10-16T15:33:01;3.55;;;3.25;;
15814;SDS011;8008;50.024;8.172;2022-10-16T15:35:30;3.47;;;3.17;;
15814;SDS011;8008;50.024;8.172;2022-10-16T15:37:58;4.47;;;3.45;;
15814;SDS011;8008;50.024;8.172;2022-10-16T15:40:26;3.67;;;3.10;;
15814;SDS011;8008;50.024;8.172;2022-10-16T15:42:54;4.75;;;3.35;;
15814;SDS011;8008;50.024;8.172;2022-10-16T15:45:22;3.83;;;3.53;;
15814;SDS011;8008;50.024;8.172;2022-10-16T15:47:51;4.22;;;3.20;;
15814;SDS011;8008;50.024;8.172;2022-10-16T15:50:19;3.80;;;3.30;;
15814;SDS011;8008;50.024;8.172;2022-10-16T15:52:47;3.55;;;3.20;;
15814;SDS011;8008;50.024;8.172;2022-10-16T15:55:17;3.47;;;3.17;;
15814;SDS011;8008;50.024;8.172;2022-10-16T15:57:45;3.58;;;2.83;;
15814;SDS011;8008;50.024;8.172;2022-10-16T16:00:14;3.30;;;3.00;;
15814;SDS011;8008;50.024;8.172;2022-10-16T16:02:43;3.78;;;3.10;;
15814;SDS011;8008;50.024;8.172;2022-10-16T16:05:18;3.30;;;2.97;;
15814;SDS011;8008;50.024;8.172;2022-10-16T16:07:46;3.78;;;3.00;;
15814;SDS011;8008;50.024;8.172;2022-10-16T16:10:15;7.47;;;3.22;;
15814;SDS011;8008;50.024;8.172;2022-10-16T16:12:43;3.95;;;3.00;;
15814;SDS011;8008;50.024;8.172;2022-10-16T16:15:15;3.40;;;2.90;;
15814;SDS011;8008;50.024;8.172;2022-10-16T16:17:43;3.42;;;3.05;;
15814;SDS011;8008;50.024;8.172;2022-10-16T16:20:11;4.60;;;2.88;;
15814;SDS011;8008;50.024;8.172;2022-10-16T16:22:41;3.20;;;2.92;;
15814;SDS011;8008;50.024;8.172;2022-10-16T16:25:10;3.30;;;3.00;;
15814;SDS011;8008;50.024;8.172;2022-10-16T16:27:38;4.53;;;3.10;;
15814;SDS011;8008;50.024;8.172;2022-10-16T16:30:06;4.60;;;3.30;;
15814;SDS011;8008;50.024;8.172;2022-10-16T16:32:44;4.70;;;3.20;;
15814;SDS011;8008;50.024;8.172;2022-10-16T16:35:12;5.07;;;3.50;;
15814;SDS011;8008;50.024;8.172;2022-10-16T16:37:41;3.58;;;3.25;;
15814;SDS011;8008;50.024;8.172;2022-10-16T16:40:09;4.65;;;3.38;;
15814;SDS011;8008;50.024;8.172;2022-10-16T16:42:37;6.32;;;4.20;;
15814;SDS011;8008;50.024;8.172;2022-10-16T16:45:06;41.65;;;17.50;;
15814;SDS011;8008;50.024;8.172;2022-10-16T16:47:35;10.05;;;6.38;;
15814;SDS011;8008;50.024;8.172;2022-10-16T16:50:04;5.75;;;4.68;;
15814;SDS011;8008;50.024;8.172;2022-10-16T16:52:34;5.63;;;4.57;;
15814;SDS011;8008;50.024;8.172;2022-10-16T16:55:03;7.28;;;4.68;;
15814;SDS011;8008;50.024;8.172;2022-10-16T16:57:32;7.07;;;4.70;;
15814;SDS011;8008;50.024;8.172;2022-10-16T16:59:59;6.55;;;5.18;;
15814;SDS011;8008;50.024;8.172;2022-10-16T17:02:27;5.20;;;4.53;;
15814;SDS011;8008;50.024;8.172;2022-10-16T17:04:55;7.47;;;4.63;;
15814;SDS011;8008;50.024;8.172;2022-10-16T17:07:23;6.47;;;4.57;;
15814;SDS011;8008;50.024;8.172;2022-10-16T17:09:54;4.95;;;4.45;;
15814;SDS011;8008;50.024;8.172;2022-10-16T17:12:23;7.95;;;4.75;;
15814;SDS011;8008;50.024;8.172;2022-10-16T17:14:51;7.35;;;4.68;;
15814;SDS011;8008;50.024;8.172;2022-10-16T17:17:19;6.90;;;5.10;;
15814;SDS011;8008;50.024;8.172;2022-10-16T17:19:48;6.55;;;5.03;;
15814;SDS011;8008;50.024;8.172;2022-10-16T17:22:17;9.50;;;5.50;;
15814;SDS011;8008;50.024;8.172;2022-10-16T17:24:47;6.30;;;5.15;;
15814;SDS011;8008;50.024;8.172;2022-10-16T17:27:17;6.80;;;5.63;;
15814;SDS011;8008;50.024;8.172;2022-10-16T17:29:50;7.90;;;5.68;;
15814;SDS011;8008;50.024;8.172;2022-10-16T17:32:18;8.13;;;6.00;;
15814;SDS011;8008;50.024;8.172;2022-10-16T17:34:47;8.30;;;6.32;;
15814;SDS011;8008;50.024;8.172;2022-10-16T17:37:15;8.98;;;6.65;;
15814;SDS011;8008;50.024;8.172;2022-10-16T17:39:43;8.70;;;6.97;;
15814;SDS011;8008;50.024;8.172;2022-10-16T17:42:11;9.02;;;6.90;;
15814;SDS011;8008;50.024;8.172;2022-10-16T17:44:39;11.52;;;7.32;;
15814;SDS011;8008;50.024;8.172;2022-10-16T17:47:08;10.88;;;7.10;;
15814;SDS011;8008;50.024;8.172;2022-10-16T17:49:37;11.95;;;7.07;;
15814;SDS011;8008;50.024;8.172;2022-10-16T17:52:05;8.40;;;6.85;;
15814;SDS011;8008;50.024;8.172;2022-10-16T17:54:33;7.20;;;6.28;;
15814;SDS011;8008;50.024;8.172;2022-10-16T17:57:01;9.75;;;6.20;;
15814;SDS011;8008;50.024;8.172;2022-10-16T17:59:29;7.43;;;5.80;;
15814;SDS011;8008;50.024;8.172;2022-10-16T18:01:57;5.88;;;5.10;;
15814;SDS011;8008;50.024;8.172;2022-10-16T18:04:26;6.25;;;5.07;;
15814;SDS011;8008;50.024;8.172;2022-10-16T18:06:54;6.07;;;4.65;;
15814;SDS011;8008;50.024;8.172;2022-10-16T18:09:22;5.75;;;4.65;;
15814;SDS011;8008;50.024;8.172;2022-10-16T18:11:50;6.07;;;4.93;;
15814;SDS011;8008;50.024;8.172;2022-10-16T18:14:25;6.07;;;5.47;;
15814;SDS011;8008;50.024;8.172;2022-10-16T18:16:54;5.88;;;5.28;;
15814;SDS011;8008;50.024;8.172;2022-10-16T18:19:22;5.85;;;5.22;;
15814;SDS011;8008;50.024;8.172;2022-10-16T18:21:53;6.60;;;5.28;;
15814;SDS011;8008;50.024;8.172;2022-10-16T18:24:21;5.43;;;4.93;;
15814;SDS011;8008;50.024;8.172;2022-10-16T18:26:50;6.03;;;4.72;;
15814;SDS011;8008;50.024;8.172;2022-10-16T18:29:21;5.25;;;4.75;;
15814;SDS011;8008;50.024;8.172;2022-10-16T18:31:50;8.55;;;6.85;;